createdAt,value
2022-07-26T00:03:15.611Z,21.50
2022-07-26T00:08:47.442Z,21.50
2022-07-26T00:14:19.119Z,21.47
2022-07-26T00:19:50.887Z,21.36
2022-07-26T00:33:14.369Z,21.41
2022-07-26T00:38:46.325Z,21.45
2022-07-26T00:44:18.172Z,21.47
2022-07-26T00:49:49.670Z,21.50
2022-07-26T00:55:21.384Z,21.48
2022-07-26T03:01:36.093Z,22.06
2022-07-26T03:07:07.965Z,22.09
2022-07-26T03:12:39.737Z,22.09
2022-07-26T03:18:11.746Z,22.10
2022-07-26T03:23:43.931Z,22.12
2022-07-26T03:29:16.023Z,22.13
2022-07-26T03:34:47.797Z,22.16
2022-07-26T03:40:19.292Z,22.19
2022-07-26T03:51:20.682Z,22.17
2022-07-26T03:56:52.376Z,22.19
2022-07-26T04:02:24.041Z,22.17
2022-07-26T04:07:55.887Z,22.19
2022-07-26T04:13:28.049Z,22.19
2022-07-26T04:18:59.948Z,22.20
2022-07-26T04:24:31.968Z,22.27
2022-07-26T04:35:33.491Z,22.30
2022-07-26T04:41:05.450Z,22.31
2022-07-26T04:46:37.339Z,22.37
2022-07-26T04:52:08.793Z,22.41
2022-07-26T04:57:40.756Z,22.48
2022-07-26T05:03:12.280Z,22.54
2022-07-26T05:08:45.021Z,22.62
2022-07-26T05:14:16.988Z,22.62
2022-07-26T05:19:49.256Z,22.71
2022-07-26T05:25:20.526Z,22.75
2022-07-26T05:30:52.495Z,22.89
2022-07-26T05:36:24.215Z,22.93
2022-07-26T05:41:55.929Z,23.03
2022-07-26T05:47:27.584Z,23.07
2022-07-26T05:52:59.518Z,23.17
2022-07-26T05:58:31.548Z,23.17
2022-07-26T06:04:03.491Z,23.12
2022-07-26T06:09:35.775Z,23.09
2022-07-26T06:15:15.360Z,23.02
2022-07-26T06:20:39.073Z,23.06
2022-07-26T06:26:11.279Z,23.07
2022-07-26T06:31:43.384Z,23.09
2022-07-26T06:37:14.800Z,23.16
2022-07-26T06:42:46.856Z,23.30
2022-07-26T06:48:18.884Z,23.36
2022-07-26T06:53:50.614Z,23.37
2022-07-26T06:59:22.879Z,23.37
2022-07-26T07:04:54.960Z,23.36
2022-07-26T07:10:26.897Z,23.34
2022-07-26T07:15:58.943Z,23.20
2022-07-26T07:21:32.641Z,23.06
2022-07-26T07:27:04.735Z,22.76
2022-07-26T07:32:36.818Z,22.67
2022-07-26T07:38:08.612Z,22.52
2022-07-26T07:43:40.445Z,22.45
2022-07-26T07:49:12.648Z,22.54
2022-07-26T07:54:44.128Z,22.67
2022-07-26T08:00:15.839Z,23.13
2022-07-26T08:05:49.995Z,23.38
2022-07-26T08:11:19.352Z,23.57
2022-07-26T08:16:51.416Z,23.65
2022-07-26T08:22:23.114Z,23.79
2022-07-26T08:28:30.601Z,23.79
2022-07-26T08:33:26.939Z,23.82
2022-07-26T08:38:58.883Z,23.79
2022-07-26T08:50:00.030Z,23.54
2022-07-26T08:55:50.301Z,23.47
2022-07-26T09:01:03.787Z,23.55
2022-07-26T09:06:36.082Z,23.88
2022-07-26T09:12:07.792Z,24.07
2022-07-26T09:34:08.656Z,25.50
2022-07-26T09:39:40.086Z,25.91
2022-07-26T09:45:12.186Z,26.06
2022-07-26T09:50:43.979Z,26.57
2022-07-26T09:56:16.936Z,26.98
2022-07-26T10:01:48.590Z,28.23
2022-07-26T10:07:20.286Z,28.77
2022-07-26T10:12:52.405Z,29.56
2022-07-26T10:18:23.951Z,29.91
2022-07-26T10:23:55.984Z,30.15
2022-07-26T10:29:27.642Z,30.16
2022-07-26T10:34:59.542Z,30.11
2022-07-26T10:40:31.583Z,29.99
2022-07-26T10:46:03.873Z,29.84
2022-07-26T10:51:35.291Z,29.84
2022-07-26T10:57:07.116Z,29.87
2022-07-26T11:02:39.116Z,30.05
2022-07-26T11:08:10.815Z,30.33
2022-07-26T11:13:42.587Z,30.47
2022-07-26T11:19:14.223Z,31.05
2022-07-26T11:24:46.272Z,31.33
2022-07-26T11:30:18.355Z,31.49
2022-07-26T11:35:50.290Z,31.49
2022-07-26T11:41:34.259Z,31.18
2022-07-26T11:46:54.143Z,30.99
2022-07-26T11:52:25.977Z,30.70
2022-07-26T11:57:57.683Z,30.54
2022-07-26T12:03:29.594Z,30.15
2022-07-26T12:09:01.252Z,29.99
2022-07-26T12:14:33.226Z,29.94
2022-07-26T12:20:05.032Z,30.05
2022-07-26T12:25:36.480Z,30.46
2022-07-26T12:31:08.484Z,30.71
2022-07-26T12:36:40.370Z,31.23
2022-07-26T12:42:12.131Z,31.44
2022-07-26T12:47:43.717Z,31.51
2022-07-26T12:53:15.468Z,31.44
2022-07-26T12:58:47.213Z,31.32
2022-07-26T13:04:18.960Z,31.28
2022-07-26T13:10:14.018Z,31.02
2022-07-26T13:15:23.598Z,31.03
2022-07-26T13:20:55.307Z,31.12
2022-07-26T13:26:26.923Z,31.19
2022-07-26T13:31:58.761Z,31.28
2022-07-26T13:37:30.592Z,31.33
2022-07-26T13:39:42.279Z,31.33
2022-07-26T13:45:14.278Z,31.18
2022-07-26T13:50:45.966Z,30.89
2022-07-26T13:56:17.101Z,30.85
2022-07-26T14:01:48.578Z,30.75
2022-07-26T14:07:19.816Z,30.54
2022-07-26T14:12:51.312Z,30.22
2022-07-26T14:18:23.128Z,30.15
2022-07-26T14:23:55.250Z,29.92
2022-07-26T14:29:26.751Z,29.81
2022-07-26T14:45:59.493Z,29.96
2022-07-26T14:51:31.095Z,30.03
2022-07-26T14:57:03.289Z,30.09
2022-07-26T15:02:34.984Z,30.06
2022-07-26T15:08:06.483Z,30.02
2022-07-26T15:13:38.456Z,29.94
2022-07-26T15:19:09.986Z,29.75
2022-07-26T15:24:41.490Z,29.67
2022-07-26T15:30:14.801Z,29.43
2022-07-26T15:35:44.928Z,29.33
2022-07-26T15:41:16.694Z,29.34
2022-07-26T15:46:48.662Z,29.49
2022-07-26T15:52:20.313Z,29.60
2022-07-26T15:57:52.263Z,29.57
2022-07-26T16:03:24.336Z,29.56
2022-07-26T16:09:19.068Z,29.53
2022-07-26T16:20:03.296Z,29.23
2022-07-26T16:25:35.124Z,28.95
2022-07-26T16:31:06.788Z,28.78
2022-07-26T16:36:38.673Z,28.60
2022-07-26T16:42:10.304Z,28.55
2022-07-26T16:53:13.336Z,28.39
2022-07-26T16:58:43.522Z,28.34
2022-07-26T17:09:44.603Z,28.16
2022-07-26T17:20:45.869Z,28.03
2022-07-26T17:26:17.828Z,27.98
2022-07-26T17:31:49.143Z,27.86
2022-07-26T17:37:21.431Z,27.84
2022-07-26T17:42:51.815Z,27.75
2022-07-26T17:48:23.389Z,27.74
2022-07-26T17:53:55.419Z,27.74
2022-07-26T17:59:26.863Z,27.75
2022-07-26T18:04:59.068Z,27.72
2022-07-26T18:10:30.394Z,27.65
2022-07-26T18:16:05.934Z,27.57
2022-07-26T18:21:34.145Z,27.49
2022-07-26T18:27:06.324Z,27.30
2022-07-26T18:32:38.606Z,27.23
2022-07-26T18:38:10.598Z,26.96
2022-07-26T18:43:42.113Z,26.86
2022-07-26T18:49:19.739Z,26.64
2022-07-26T18:54:45.520Z,26.50
2022-07-26T19:00:17.564Z,26.17
2022-07-26T19:05:48.906Z,26.02
2022-07-26T19:11:20.590Z,25.79
2022-07-26T19:16:52.511Z,25.67
2022-07-26T19:22:24.393Z,25.44
2022-07-26T19:27:56.243Z,25.27
2022-07-26T19:33:28.166Z,25.12
2022-07-26T19:38:59.529Z,25.05
2022-07-26T19:44:31.602Z,24.79
2022-07-26T19:50:03.087Z,24.71
2022-07-26T19:55:34.996Z,24.46
2022-07-26T20:01:06.727Z,24.34
2022-07-26T20:06:38.617Z,24.13
2022-07-26T20:12:10.584Z,24.03
2022-07-26T20:17:42.310Z,23.88
2022-07-26T20:23:14.132Z,23.79
2022-07-26T20:28:45.916Z,23.58
2022-07-26T20:34:17.845Z,23.51
2022-07-26T20:39:49.729Z,23.37
2022-07-26T20:45:21.731Z,23.34
2022-07-26T20:50:53.409Z,23.29
2022-07-26T20:56:25.182Z,23.23
2022-07-26T21:01:57.191Z,23.12
2022-07-26T21:07:57.228Z,23.06
2022-07-26T21:13:00.698Z,22.92
2022-07-26T21:18:32.717Z,22.88
2022-07-26T21:24:04.624Z,22.95
2022-07-26T21:29:39.240Z,23.03
2022-07-26T21:35:08.409Z,23.17
2022-07-26T21:40:40.125Z,23.23
2022-07-26T21:46:13.035Z,23.33
2022-07-26T21:51:45.270Z,23.37
2022-07-26T21:57:17.682Z,23.30
2022-07-26T22:02:49.743Z,23.23
2022-07-26T22:08:21.274Z,23.12
2022-07-26T22:13:52.777Z,23.07
2022-07-26T22:19:24.447Z,22.99
2022-07-26T22:24:56.266Z,22.93
2022-07-26T22:30:28.306Z,22.83
2022-07-26T22:36:00.113Z,22.76
2022-07-26T22:41:32.639Z,22.58
2022-07-26T22:47:03.615Z,22.45
2022-07-26T22:52:35.321Z,22.21
2022-07-26T22:58:06.970Z,22.12
2022-07-26T23:03:39.425Z,22.05
2022-07-26T23:09:11.851Z,22.03
2022-07-26T23:14:43.461Z,21.97
2022-07-26T23:20:15.211Z,21.97
2022-07-26T23:25:47.651Z,22.00
2022-07-26T23:31:19.506Z,22.06
2022-07-26T23:36:51.270Z,22.06
2022-07-26T23:42:23.625Z,22.05
2022-07-26T23:47:55.601Z,22.00
2022-07-26T23:53:27.382Z,21.95
2022-07-26T23:58:59.154Z,21.76
